CheckWX is a tool to help pilots better visualize weather data.  It is not intended as a substitute for an official pre-flight weather briefing.

13:03:52 UTC

KMJQ METAR
Jackson Municipal Airport
Jackson, Minnesota, USA
Current

29 mins ago

KMJQ 241235Z AUTO 10012KT 4SM +RA OVC002 11/11 A2987 RMK AO2 P0002 LTG
Observed
May-24 @ 12:35 UTC
Wind
  • 100° at 12 KTS
Visibility
4 SM
Flight Rules
LIFR
Conditions
Heavy Rain
Cloud Levels
  • Overcast at 200' AGL
Temperature
11°C / 52°F
Dewpoint
11°C / 52°F
Humidity
100%
Altimeter
29.87" Hg
Pressure
1011.52 hPa
Current Rain
0.02"
Previous

49 mins ago

KMJQ 241215Z AUTO 11013KT 2SM -RA OVC002 11/11 A2988 RMK AO2 P0001 LTG
Observed
May-24 @ 12:15 UTC
Wind
  • 110° at 13 KTS
Visibility
2 SM
Flight Rules
LIFR
Conditions
Light Rain
Cloud Levels
  • Overcast at 200' AGL
Temperature
11°C / 52°F
Dewpoint
11°C / 52°F
Humidity
100%
Altimeter
29.88" Hg
Pressure
1011.82 hPa
Current Rain
0.01"
Previous

1 hour ago

KMJQ 241155Z AUTO 10013KT 1 1/4SM BR OVC002 11/11 A2990 RMK AO2 LTG
Observed
May-24 @ 11:55 UTC
Wind
  • 100° at 13 KTS
Visibility
1 1/4 SM
Flight Rules
LIFR
Conditions
Mist
Cloud Levels
  • Overcast at 200' AGL
Temperature
11°C / 52°F
Dewpoint
11°C / 52°F
Humidity
100%
Altimeter
29.9" Hg
Pressure
1012.52 hPa